Aviation Digital Data Service (ADDS)

Output produced by METARs form (1324 UTC 10 July 2020)
found at http://www.aviationweather.gov/metar/data/
 
KHKS 101253Z 27006KT 7SM OVC042 27/24 A3002 RMK AO2 SLP157 T02720239
KHKS 101153Z 26005KT 7SM BKN036 BKN046 26/24 A3001 RMK AO2 SLP152 T02610239 10272 20261 51013
KHKS 101053Z AUTO 25006KT 7SM OVC041 26/24 A3000 RMK AO2 SLP149 T02610239
KHKS 100953Z AUTO 24005KT 8SM SCT043 27/24 A2998 RMK AO2 SLP142 T02670239
KHKS 100853Z AUTO 25005KT 8SM CLR 26/23 A2997 RMK AO2 SLP139 T02610233 52005
KHKS 100753Z AUTO 23004KT 8SM CLR 27/23 A2996 RMK AO2 SLP136 T02670233
KHKS 100653Z AUTO 00000KT 9SM BKN040 27/24 A2996 RMK AO2 SLP136 T02670239
KHKS 100553Z AUTO 23003KT 10SM FEW038 27/23 A2995 RMK AO2 SLP135 T02720233 10317 20267 403330233 51011
KHKS 100453Z AUTO 23004KT 10SM CLR 27/23 A2995 RMK AO2 SLP131 T02720233
KHKS 100353Z AUTO 24003KT 8SM CLR 27/24 A2994 RMK AO2 SLP128 T02720239
KHKS 100253Z AUTO 22004KT 8SM CLR 28/24 A2992 RMK AO2 SLP123 T02780239 55002
KHKS 100153Z AUTO 00000KT 9SM CLR 28/24 A2991 RMK AO2 SLP121 T02780239
KHKS 100053Z 00000KT 10SM CLR 29/23 A2992 RMK AO2 SLP123 T02940233
KHKS 092353Z 26006KT 10SM CLR 32/23 A2993 RMK AO2 SLP126 T03170228 10333 20317 58004
KHKS 092253Z 26008KT 10SM CLR 32/22 A2994 RMK AO2 SLP128 T03220222
KHKS 092153Z 25008KT 10SM FEW041 33/23 A2994 RMK AO2 SLP129 T03280228
KHKS 092053Z 24010G17KT 10SM FEW040 33/23 A2994 RMK AO2 SLP130 T03280228 55008
KHKS 091953Z 26006KT 10SM FEW032 33/24 A2993 RMK AO2 LTG DSNT NE SLP127 T03280239
KHKS 091853Z 26007KT 9SM FEW031 FEW049 FEW060 32/24 A2996 RMK AO2 SLP135 T03220244
KHKS 091753Z 28004KT 9SM SCT026 BKN036 32/24 A2997 RMK AO2 SLP138 T03170244 10317 20256 58001
KHKS 091653Z 24006KT 9SM SCT029 SCT035 BKN047 30/24 A2997 RMK AO2 SLP140 T03000239
KHKS 091620Z 25006KT 8SM FEW019 BKN032 30/24 A2998 RMK AO2 T03000239
KHKS 091553Z 26008KT 8SM BKN019 BKN027 OVC037 29/24 A2998 RMK AO2 SLP142 T02940239
KHKS 091453Z 27006KT 8SM OVC015 29/24 A2997 RMK AO2 SLP140 T02890239 50004
KHKS 091353Z 26007KT 7SM OVC012 27/23 A2997 RMK AO2 SLP140 T02670233
KHKS 091253Z 25005KT 6SM BR OVC011 26/24 A2997 RMK AO2 SLP140 T02610239
KHKS 091242Z 25008KT 5SM HZ BKN010 OVC013 26/23 A2997 RMK AO2 CIG 007V011 T02610233
KHKS 091153Z 25007KT 4SM BR OVC007 26/23 A2996 RMK AO2 SLP136 70083 T02560233 10256 20233 53013
KHKS 091053Z AUTO 25007KT 6SM BR OVC006 26/23 A2994 RMK AO2 SLP130 T02560233 $
KHKS 090953Z AUTO 25005KT 7SM OVC006 25/23 A2993 RMK AO2 SLP125 T02500233 $
KHKS 090853Z AUTO 19004KT 7SM OVC007 24/22 A2992 RMK AO2 SLP123 T02390222 55001 $
KHKS 090753Z AUTO 20004KT 8SM OVC005 24/22 A2991 RMK AO2 SLP121 T02390222 $
KHKS 090653Z AUTO 18006KT 7SM BKN005 BKN039 24/22 A2992 RMK AO2 SLP124 T02390222 $
KHKS 090634Z AUTO 18005KT 7SM SCT004 BKN038 24/22 A2993 RMK AO2 T02390222 $
KHKS 090607Z AUTO 19006KT 8SM BKN004 BKN070 24/22 A2994 RMK AO2 T02390222 $
KHKS 090553Z AUTO 18005KT 9SM SCT004 BKN080 24/22 A2994 RMK AO2 SLP130 T02390222 10256 20239 402720228 58001 $
KHKS 090534Z AUTO 18004KT 9SM FEW005 FEW041 BKN080 24/22 A2994 RMK AO2 T02390222 $
KHKS 090453Z AUTO 15005KT 10SM FEW055 BKN080 24/22 A2995 RMK AO2 SLP134 T02390222 $
KHKS 090353Z AUTO 15003KT 8SM FEW004 BKN080 BKN090 24/22 A2995 RMK AO2 SLP134 T02390222 $
KHKS 090313Z AUTO 17003KT 9SM SCT004 SCT080 24/22 A2994 RMK AO2 T02390222 $
KHKS 090253Z AUTO 18005KT 9SM OVC004 24/23 A2994 RMK AO2 SLP130 T02390228 51006 $
KHKS 090239Z AUTO 17004KT 9SM BKN005 24/22 A2994 RMK AO2 T02390222 $
KHKS 090203Z AUTO 17004KT 10SM SCT006 SCT075 24/23 A2993 RMK AO2 T02440228 $
KHKS 090153Z AUTO 16005KT 10SM BKN006 BKN075 24/23 A2993 RMK AO2 SLP127 T02440228 $
KHKS 090137Z 14004KT 10SM SCT006 BKN075 24/22 A2993 RMK AO2 T02440222 $
KHKS 090053Z 17004KT 10SM CLR 25/23 A2992 RMK AO2 SLP124 T02500228 $
KHKS 082353Z 18003KT 10SM FEW110 26/23 A2992 RMK AO2 SLP123 60014 T02560228 10256 20233 58013 $
KHKS 082253Z 17004KT 10SM FEW085 26/23 A2994 RMK AO2 SLP129 T02560228 $
KHKS 082153Z VRB04KT 10SM BKN100 25/22 A2996 RMK AO2 RAEMM SLP135 P0000 T02500222 $
KHKS 082053Z 00000KT 10SM -RA FEW036 BKN110 24/22 A2996 RMK AO2 RAE03B27 SLP137 P0002 60014 T02390217 56009
KHKS 081953Z 27004KT 4SM RA FEW026 BKN075 OVC110 24/21 A2996 RMK AO2 LTG DSNT SW AND W RAE1857B34 SLP137 P0004 T02390211
KHKS 081950Z 27006KT 5SM -RA FEW026 BKN047 OVC090 24/21 A2996 RMK AO2 LTG DSNT SW AND W RAE1857B34 PRESFR P0004
KHKS 081942Z 26010G24KT 2SM -RA BKN035 BKN055 BKN110 24/21 A2997 RMK AO2 LTG DSNT SW AND W RAE1857B34 P0003 T02390211
KHKS 081853Z 00000KT 10SM -RA SCT043 SCT080 OVC110 24/22 A2998 RMK AO2 LTG DSNT SW AND W TSE09 SLP146 P0008 T02440222
KHKS 081833Z 00000KT 10SM -RA FEW070 FEW085 OVC110 24/22 A2999 RMK AO2 LTG DSNT S TSE09 P0008 T02390222
KHKS 081815Z 00000KT 4SM VCTS -RA BR FEW080 SCT090 OVC110 23/22 A2999 RMK AO2 LTG DSNT ALQDS TSE09 P0006 T02330217
KHKS 081808Z 00000KT 3SM TSRA BR SCT090 OVC110 23/22 A2999 RMK AO2 LTG DSNT SE-W P0005 T02330217
KHKS 081753Z 06004KT 2 1/2SM TSRA BR BKN095 BKN120 23/22 A2999 RMK AO2 LTG DSNT ALQDS TSB18E33B41 SLP149 P0021 60069 T02330217 10272 20228 56010
KHKS 081741Z 00000KT 1 3/4SM TSRA BR FEW075 SCT095 SCT120 23/22 A3001 RMK AO2 LTG DSNT ALQDS TSB18E33B41 P0017 T02330217
KHKS 081737Z 00000KT 2 1/2SM VCTS RA BR FEW075 SCT100 SCT120 23/22 A3001 RMK AO2 LTG DSNT E-SW TSB18E33 P0015 T02330217
KHKS 081718Z 29004KT 3SM -TSRA BR SCT049 BKN095 OVC110 24/22 A3002 RMK AO2 LTG DSNT SE-W TSB18 P0012 T02390217
KHKS 081714Z 30004KT 2 1/2SM VCTS -RA BR SCT049 BKN070 OVC100 23/22 A3002 RMK AO2 LTG DSNT ALQDS P0012 T02330217
KHKS 081708Z 27004KT 3/4SM VCTS RA BR BKN045 BKN065 OVC100 23/22 A3001 RMK AO2 LTG DSNT ALQDS P0011 T02330217
KHKS 081658Z 23007KT 1SM VCTS RA BR BKN039 BKN055 OVC100 23/22 A3002 RMK AO2 LTG DSNT ALQDS P0003 T02280217
KHKS 081653Z 00000KT 3/4SM +RA BR BKN039 OVC055 23/22 A3001 RMK AO2 LTG DSNT ALQDS TSB35E50 SLP154 P0047 T02280217
KHKS 081639Z 34008G17KT 310V040 3/4SM +TSRA BR FEW009 BKN035 OVC060 23/21 A3003 RMK AO2 LTG DSNT SE AND W AND NW TSB35 P0035 T02280211
KHKS 081636Z 33007KT 300V010 2 1/2SM -TSRA BR FEW009 BKN035 OVC060 23/21 A3003 RMK AO2 LTG DSNT SE AND W AND NW TSB35 P0023 T02280211
KHKS 081633Z 35006KT 6SM VCTS -RA BR FEW009 BKN035 OVC060 23/21 A3003 RMK AO2 LTG DSNT W-N P0019 T02280211
KHKS 081627Z 35006KT 2SM VCTS -RA BR FEW010 BKN033 OVC060 23/21 A3003 RMK AO2 LTG DSNT ALQDS P0019 T02280211
KHKS 081617Z 31007KT 3/4SM VCTS +RA BR FEW010 BKN033 OVC044 23/21 A3003 RMK AO2 LTG DSNT ALQDS P0017 T02280206
KHKS 081600Z VRB05KT 2SM VCTS +RA SCT015 BKN031 OVC042 23/20 A3002 RMK AO2 VIS 3/4V5 LTG DSNT ALQDS P0005 T02330200
KHKS 081553Z 33007KT 7SM VCTS -RA SCT011 BKN021 OVC030 24/20 A3002 RMK AO2 LTG DSNT W-NE RAB50 SLP159 P0001 T02440200
KHKS 081548Z 32006KT 9SM VCTS SCT011 BKN018 OVC029 26/21 A3003 RMK AO2 LTG DSNT W-NE
KHKS 081453Z 23007KT 8SM OVC012 27/23 A3001 RMK AO2 LTG DSNT N AND NW SLP155 T02670233 53007
KHKS 081424Z 21008KT 7SM BKN010 OVC014 27/23 A3001 RMK AO2 CIG 008V012 T02670233
KHKS 081353Z 22006KT 7SM OVC008 26/23 A3000 RMK AO2 CIG 007V011 SLP151 T02610233
KHKS 081253Z 19006KT 6SM BR BKN006 OVC020 25/23 A2999 RMK AO2 SLP148 T02500228
KHKS 081153Z VRB03KT 7SM OVC006 24/23 A2999 RMK AO2 SLP148 60000 70003 T02440228 10244 20239 50003
KHKS 081053Z AUTO 19003KT 10SM BKN008 24/22 A2999 RMK AO2 SLP148 T02440222
KHKS 081048Z AUTO 18003KT 10SM BKN008 24/22 A2999 RMK AO2
KHKS 081036Z AUTO 16004KT 10SM SCT008 BKN012 24/22 A2999 RMK AO2 T02390217
KHKS 081027Z AUTO 16003KT 10SM SCT012 24/22 A2999 RMK AO2 T02390217
KHKS 081016Z AUTO 19004KT 10SM BKN011 24/22 A2999 RMK AO2 T02440217
KHKS 080953Z AUTO 19004KT 10SM CLR 24/22 A2998 RMK AO2 SLP145 T02440217
KHKS 080853Z AUTO 20004KT 10SM SCT095 SCT120 24/23 A2998 RMK AO2 RAB28E40 SLP143 P0000 60000 T02440228 56005
KHKS 080753Z AUTO 19003KT 7SM CLR 24/23 A2998 RMK AO2 SLP143 T02440228
KHKS 080653Z AUTO 00000KT 9SM FEW110 24/23 A2999 RMK AO2 RAE0555 SLP147 P0000 T02440228
KHKS 080553Z AUTO 00000KT 10SM -RA SCT100 24/22 A3000 RMK AO2 RAB16E28B46 SLP149 P0000 60000 T02440222 10256 20239 403060228 50003
KHKS 080453Z AUTO 00000KT 10SM CLR 24/22 A3000 RMK AO2 SLP150 T02440222
KHKS 080353Z AUTO 00000KT 10SM CLR 24/22 A2999 RMK AO2 SLP147 T02440222
KHKS 080253Z AUTO 00000KT 10SM CLR 26/22 A2999 RMK AO2 RAE0159 SLP146 P0000 60000 T02560222 55000
KHKS 080153Z AUTO 19003KT 10SM -RA CLR 25/22 A2998 RMK AO2 RAB50 SLP142 P0000 T02500217
KHKS 080053Z 00000KT 10SM CLR 25/22 A2997 RMK AO2 SLP139 T02500217
KHKS 072353Z 06006KT 10SM CLR 26/21 A2999 RMK AO2 SLP147 60002 T02560211 10306 20256 55003
KHKS 072253Z 27004KT 10SM FEW075 30/22 A2999 RMK AO2 LTG DSNT NE SLP145 T03000217
KHKS 072153Z VRB04KT 10SM FEW037 29/23 A2998 RMK AO2 LTG DSNT N AND NE SLP143 T02940233
KHKS 072053Z 06005KT 10SM FEW055 FEW100 29/23 A3000 RMK AO2 LTG DSNT E AND SE RAE09 SLP149 P0002 60002 T02890233 56010
KHKS 072001Z 03006KT 8SM -RA SCT015 SCT022 BKN032 27/22 A3000 RMK AO2 LTG DSNT NE AND E P0002 T02720222
KHKS 071953Z 36009KT 310V020 9SM -RA SCT016 BKN023 BKN032 27/23 A3000 RMK AO2 LTG DSNT NE AND E RAE36B44 SLP149 P0000 T02720233
KHKS 071943Z 01003KT 9SM FEW016 SCT023 BKN042 29/24 A2999 RMK AO2 LTG DSNT NE AND E RAE36 P0000 T02890239
KHKS 071926Z 36004KT 10SM -RA SCT017 BKN023 OVC041 28/24 A3000 RMK AO2 LTG DSNT NE P0000 T02830239
KHKS 071853Z 27007KT 10SM -RA FEW036 FEW047 29/25 A3001 RMK AO2 RAE10B32 SLP153 P0000 T02940250
KHKS 071817Z 26009KT 10SM BKN021 BKN040 OVC090 28/24 A3003 RMK AO2 RAE10 P0000 T02780244
KHKS 071753Z 26007KT 4SM -RA SCT025 BKN075 OVC090 27/24 A3003 RMK AO2 LTG DSNT S RAB28 SLP160 P0001 60001 T02720244 10294 20233 55004
KHKS 071653Z 30005KT 10SM FEW017 SCT023 SCT032 29/23 A3003 RMK AO2 SLP159 T02890233
KHKS 071646Z 31006KT 10SM FEW017 SCT023 BKN050 29/23 A3003 RMK AO2 T02890233
KHKS 071638Z 34005KT 10SM SCT017 BKN024 BKN049 29/23 A3003 RMK AO2 T02890233
KHKS 071553Z 32007KT 10SM FEW011 SCT022 28/23 A3004 RMK AO2 SLP162 T02780233
KHKS 071521Z 28007KT 10SM SCT014 BKN022 27/23 A3004 RMK AO2 T02670228
KHKS 071508Z 26009KT 10SM BKN014 BKN020 27/23 A3005 RMK AO2 T02670228
KHKS 071453Z 28005KT 10SM FEW011 BKN018 BKN100 27/23 A3004 RMK AO2 SLP164 T02670228 53011
KHKS 071429Z 28007KT 10SM SCT007 OVC020 26/23 A3004 RMK AO2 T02610228
KHKS 071353Z 27003KT 10SM OVC006 25/23 A3003 RMK AO2 SLP160 T02500228
KHKS 101120Z 1012/1112 24006KT P6SM BKN045 
     FM101800 30008KT P6SM VCTS BKN040CB 
     FM102300 31003KT P6SM SCT050